createdAt,value
2022-12-08T00:00:02.312Z,1000.6837412349237
2022-12-08T00:15:02.422Z,1000.698105797786
2022-12-08T00:30:01.457Z,1000.594138682971
2022-12-08T00:45:02.146Z,1000.4266077594286
2022-12-08T01:00:02.335Z,1000.3092990857111
2022-12-08T01:15:02.973Z,1000.1808886403606
2022-12-08T01:30:02.461Z,1000.1613745734259
2022-12-08T01:45:01.490Z,1000.1190184292428
2022-12-08T02:00:02.643Z,1000.0923930796134
2022-12-08T02:15:04.977Z,999.9294055707912
2022-12-08T02:30:02.715Z,999.9282836542048
2022-12-08T02:45:01.642Z,999.6409345338606
2022-12-08T03:00:01.435Z,999.4716094021106
2022-12-08T03:15:01.385Z,999.2109472242907
2022-12-08T03:30:02.500Z,998.9696199554976
2022-12-08T03:45:01.567Z,998.8074134625474
2022-12-08T04:00:02.705Z,998.6977623589733
2022-12-08T04:15:01.699Z,998.5540691244656
2022-12-08T04:30:01.717Z,998.3617749747787
2022-12-08T04:45:01.805Z,998.3201787170132
2022-12-08T05:00:01.935Z,998.3237122240987
2022-12-08T05:15:01.962Z,998.1833792471292
2022-12-08T05:30:01.995Z,998.0704937690862
2022-12-08T05:45:01.848Z,998.0491199114871
2022-12-08T06:00:01.679Z,998.0320306695195
2022-12-08T06:15:01.521Z,997.9711203191939
2022-12-08T06:30:02.645Z,997.9493358785675
2022-12-08T06:45:01.717Z,998.0673113904314
2022-12-08T07:00:02.998Z,998.0573962619015
2022-12-08T07:15:01.993Z,998.0885408862233
2022-12-08T07:30:01.854Z,998.1718164265517
2022-12-08T07:45:01.666Z,998.2151238774777
2022-12-08T08:00:02.655Z,998.232554121546
2022-12-08T08:15:01.722Z,998.2614341909062
2022-12-08T08:30:01.593Z,998.325123571719
2022-12-08T08:45:01.910Z,998.4394666549206
2022-12-08T09:00:01.731Z,998.5014709107231
2022-12-08T09:15:01.595Z,998.6470614615583
2022-12-08T09:30:02.719Z,998.6410471421163
2022-12-08T09:45:01.610Z,998.6565019707
2022-12-08T10:00:02.630Z,998.6201879306583
2022-12-08T10:15:01.581Z,998.6407379147307
2022-12-08T10:30:01.477Z,998.4265401782984
2022-12-08T10:45:01.322Z,998.372209312621
2022-12-08T11:00:02.255Z,998.2615934691271
2022-12-08T11:15:02.094Z,998.2132693440961
2022-12-08T11:30:02.140Z,998.196056703252
2022-12-08T11:45:02.231Z,998.117663173584
2022-12-08T12:00:02.230Z,998.1179975312515
2022-12-08T12:15:02.104Z,998.1928795702848
2022-12-08T12:30:01.764Z,998.2395873458768
2022-12-08T12:45:01.518Z,998.2079973840621
2022-12-08T13:00:02.363Z,998.0723714022414
2022-12-08T13:15:01.995Z,997.909231515124
2022-12-08T13:30:01.797Z,997.932121955891
2022-12-08T13:45:48.512Z,998.0521341641277
2022-12-08T14:00:02.034Z,998.0907891410701
2022-12-08T14:15:04.228Z,998.0471175220238
2022-12-08T14:30:02.354Z,998.086819446419
2022-12-08T14:45:02.009Z,998.0372015146993
2022-12-08T15:00:01.742Z,998.1648088527284
2022-12-08T15:15:01.419Z,998.2594360840365
2022-12-08T15:30:02.217Z,998.2214016207071
2022-12-08T15:45:01.952Z,998.3914714485788
2022-12-08T16:00:01.617Z,998.381102760799
2022-12-08T16:15:48.551Z,998.4525884131965
2022-12-08T16:30:02.131Z,998.5657020209378
2022-12-08T16:45:02.115Z,998.6271329307688
2022-12-08T17:00:02.385Z,998.5797559317092
2022-12-08T17:15:02.244Z,998.6719254967928
2022-12-08T17:30:01.983Z,998.7649504436699
2022-12-08T17:45:01.641Z,998.757858421771
2022-12-08T18:00:02.337Z,998.7636799499302
2022-12-08T18:15:02.200Z,998.711958085752
2022-12-08T18:30:02.213Z,998.7194891921615
2022-12-08T18:45:02.024Z,998.7618709155713
2022-12-08T19:00:01.653Z,998.7665128240005
2022-12-08T19:15:02.322Z,998.8054847539003
2022-12-08T19:30:02.037Z,998.7737205961863
2022-12-08T19:45:01.701Z,998.7692636878877
2022-12-08T20:00:02.381Z,998.7622870584293
2022-12-08T20:15:02.055Z,998.8950366291289
2022-12-08T20:30:01.829Z,998.84479743524
2022-12-08T20:45:01.520Z,998.9184247284429
2022-12-08T21:00:02.424Z,999.0164124476292
2022-12-08T21:15:02.352Z,999.1428379588331
2022-12-08T21:30:02.231Z,999.183878865117
2022-12-08T21:45:02.014Z,999.1239751717045
2022-12-08T22:00:01.734Z,999.0087491964408
2022-12-08T22:15:01.782Z,998.9263791562339
2022-12-08T22:30:02.730Z,998.9709937238648
2022-12-08T22:45:02.849Z,998.793101310474
2022-12-08T23:00:02.746Z,998.8764251454409
2022-12-08T23:15:02.520Z,998.9594353440283
2022-12-08T23:30:02.292Z,999.0240914290542
2022-12-08T23:45:01.973Z,998.9939085680181
